CLE weather

Cleveland Hopkins International Airport
Cleveland, Ohio, United States

Public forecast

Using degrees Fahrenheit for public forecast. Weather courtesy of forecast.io.

Current aviation weather report (METAR) for Cleveland Hopkins International Airport

Retrieved 2019/11/19 16:35 UTC (20 minutes ago):

KCLE 191635Z 25004KT 3SM BR OVC010 06/03 A2984 RMK AO2 T00560028

Aviation forecast (TAF) for Cleveland Hopkins International Airport

Retrieved 2019/11/19 12:42 UTC (4 hours ago):

TAF KCLE 191140Z 1912/2018 23004KT 5SM BR OVC012 TEMPO 1913/1916 BKN008 FM192100 26004KT P6SM OVC025 FM200000 VRB03KT P6SM BKN025 FM201200 VRB03KT P6SM BKN015